sensor_id;sensor_type;location;lat;lon;timestamp;P1;durP1;ratioP1;P2;durP2;ratioP2
33150;SDS011;19508;42.578;23.416;2022-12-26T00:00:51;60.08;;;23.95;;
33150;SDS011;19508;42.578;23.416;2022-12-26T00:03:17;49.95;;;17.67;;
33150;SDS011;19508;42.578;23.416;2022-12-26T00:05:43;27.17;;;11.00;;
33150;SDS011;19508;42.578;23.416;2022-12-26T00:08:08;29.80;;;11.85;;
33150;SDS011;19508;42.578;23.416;2022-12-26T00:10:34;33.55;;;12.05;;
33150;SDS011;19508;42.578;23.416;2022-12-26T00:12:59;21.55;;;9.77;;
33150;SDS011;19508;42.578;23.416;2022-12-26T00:15:24;13.85;;;6.95;;
33150;SDS011;19508;42.578;23.416;2022-12-26T00:17:50;12.32;;;6.22;;
33150;SDS011;19508;42.578;23.416;2022-12-26T00:20:15;25.55;;;8.35;;
33150;SDS011;19508;42.578;23.416;2022-12-26T00:22:40;14.88;;;7.38;;
33150;SDS011;19508;42.578;23.416;2022-12-26T00:25:06;17.80;;;7.07;;
33150;SDS011;19508;42.578;23.416;2022-12-26T00:27:31;30.83;;;7.82;;
33150;SDS011;19508;42.578;23.416;2022-12-26T00:29:57;27.83;;;10.00;;
33150;SDS011;19508;42.578;23.416;2022-12-26T00:32:22;26.33;;;9.40;;
33150;SDS011;19508;42.578;23.416;2022-12-26T00:34:48;22.50;;;8.45;;
33150;SDS011;19508;42.578;23.416;2022-12-26T00:37:13;25.48;;;9.65;;
33150;SDS011;19508;42.578;23.416;2022-12-26T00:39:38;20.40;;;9.60;;
33150;SDS011;19508;42.578;23.416;2022-12-26T00:42:04;31.27;;;12.75;;
33150;SDS011;19508;42.578;23.416;2022-12-26T00:44:29;25.67;;;10.65;;
33150;SDS011;19508;42.578;23.416;2022-12-26T00:46:54;28.00;;;10.30;;
33150;SDS011;19508;42.578;23.416;2022-12-26T00:49:20;21.38;;;8.93;;
33150;SDS011;19508;42.578;23.416;2022-12-26T00:51:45;23.83;;;10.30;;
33150;SDS011;19508;42.578;23.416;2022-12-26T00:54:11;23.90;;;9.48;;
33150;SDS011;19508;42.578;23.416;2022-12-26T00:56:36;20.77;;;7.88;;
33150;SDS011;19508;42.578;23.416;2022-12-26T00:59:01;17.63;;;8.25;;
33150;SDS011;19508;42.578;23.416;2022-12-26T01:01:27;33.85;;;10.43;;
33150;SDS011;19508;42.578;23.416;2022-12-26T01:03:55;29.42;;;10.10;;
33150;SDS011;19508;42.578;23.416;2022-12-26T01:06:20;81.10;;;23.63;;
33150;SDS011;19508;42.578;23.416;2022-12-26T01:08:46;81.57;;;20.75;;
33150;SDS011;19508;42.578;23.416;2022-12-26T01:11:12;31.35;;;9.75;;
33150;SDS011;19508;42.578;23.416;2022-12-26T01:13:38;51.40;;;15.20;;
33150;SDS011;19508;42.578;23.416;2022-12-26T01:16:04;45.80;;;15.05;;
33150;SDS011;19508;42.578;23.416;2022-12-26T01:18:30;50.58;;;16.45;;
33150;SDS011;19508;42.578;23.416;2022-12-26T01:20:56;49.03;;;16.10;;
33150;SDS011;19508;42.578;23.416;2022-12-26T01:23:23;27.98;;;8.13;;
33150;SDS011;19508;42.578;23.416;2022-12-26T01:25:48;29.25;;;10.02;;
33150;SDS011;19508;42.578;23.416;2022-12-26T01:28:14;45.83;;;16.52;;
33150;SDS011;19508;42.578;23.416;2022-12-26T01:30:39;25.70;;;9.20;;
33150;SDS011;19508;42.578;23.416;2022-12-26T01:33:04;34.15;;;10.55;;
33150;SDS011;19508;42.578;23.416;2022-12-26T01:35:30;93.63;;;23.83;;
33150;SDS011;19508;42.578;23.416;2022-12-26T01:37:55;91.35;;;23.88;;
33150;SDS011;19508;42.578;23.416;2022-12-26T01:40:21;57.33;;;14.77;;
33150;SDS011;19508;42.578;23.416;2022-12-26T01:42:46;34.47;;;8.95;;
33150;SDS011;19508;42.578;23.416;2022-12-26T01:45:28;28.92;;;11.52;;
33150;SDS011;19508;42.578;23.416;2022-12-26T01:48:11;18.83;;;5.72;;
33150;SDS011;19508;42.578;23.416;2022-12-26T01:53:20;16.02;;;4.78;;
33150;SDS011;19508;42.578;23.416;2022-12-26T01:55:51;12.55;;;5.03;;
33150;SDS011;19508;42.578;23.416;2022-12-26T01:58:24;75.60;;;19.15;;
33150;SDS011;19508;42.578;23.416;2022-12-26T02:00:55;47.78;;;13.32;;
33150;SDS011;19508;42.578;23.416;2022-12-26T02:03:20;62.90;;;23.38;;
33150;SDS011;19508;42.578;23.416;2022-12-26T02:06:05;33.80;;;10.27;;
33150;SDS011;19508;42.578;23.416;2022-12-26T02:08:33;24.77;;;9.32;;
33150;SDS011;19508;42.578;23.416;2022-12-26T02:11:05;17.08;;;6.82;;
33150;SDS011;19508;42.578;23.416;2022-12-26T02:13:36;27.55;;;9.85;;
33150;SDS011;19508;42.578;23.416;2022-12-26T02:16:03;41.55;;;17.10;;
33150;SDS011;19508;42.578;23.416;2022-12-26T02:18:30;115.82;;;37.88;;
33150;SDS011;19508;42.578;23.416;2022-12-26T02:23:43;28.35;;;11.82;;
33150;SDS011;19508;42.578;23.416;2022-12-26T02:34:30;12.80;;;5.25;;
33150;SDS011;19508;42.578;23.416;2022-12-26T02:40:35;21.92;;;6.28;;
33150;SDS011;19508;42.578;23.416;2022-12-26T02:43:15;10.70;;;4.47;;
33150;SDS011;19508;42.578;23.416;2022-12-26T02:57:05;8.20;;;3.92;;
33150;SDS011;19508;42.578;23.416;2022-12-26T02:59:59;8.48;;;4.65;;
33150;SDS011;19508;42.578;23.416;2022-12-26T03:02:49;13.55;;;4.05;;
33150;SDS011;19508;42.578;23.416;2022-12-26T03:05:41;11.38;;;4.82;;
33150;SDS011;19508;42.578;23.416;2022-12-26T03:08:32;55.20;;;22.95;;
33150;SDS011;19508;42.578;23.416;2022-12-26T03:11:20;40.15;;;18.35;;
33150;SDS011;19508;42.578;23.416;2022-12-26T03:14:18;47.83;;;19.75;;
33150;SDS011;19508;42.578;23.416;2022-12-26T03:16:48;44.25;;;14.82;;
33150;SDS011;19508;42.578;23.416;2022-12-26T03:19:37;53.38;;;17.40;;
33150;SDS011;19508;42.578;23.416;2022-12-26T03:22:22;38.15;;;12.57;;
33150;SDS011;19508;42.578;23.416;2022-12-26T03:24:56;26.23;;;10.18;;
33150;SDS011;19508;42.578;23.416;2022-12-26T03:27:42;18.73;;;8.65;;
33150;SDS011;19508;42.578;23.416;2022-12-26T03:30:08;19.42;;;7.88;;
33150;SDS011;19508;42.578;23.416;2022-12-26T03:32:56;11.60;;;5.28;;
33150;SDS011;19508;42.578;23.416;2022-12-26T03:35:22;11.90;;;3.38;;
33150;SDS011;19508;42.578;23.416;2022-12-26T03:43:38;25.77;;;11.48;;
33150;SDS011;19508;42.578;23.416;2022-12-26T03:46:47;19.08;;;8.43;;
33150;SDS011;19508;42.578;23.416;2022-12-26T03:49:39;11.98;;;5.18;;
33150;SDS011;19508;42.578;23.416;2022-12-26T03:55:36;47.17;;;13.57;;
33150;SDS011;19508;42.578;23.416;2022-12-26T03:58:31;109.43;;;30.58;;
33150;SDS011;19508;42.578;23.416;2022-12-26T04:01:22;100.22;;;25.38;;
33150;SDS011;19508;42.578;23.416;2022-12-26T04:04:10;135.02;;;40.85;;
33150;SDS011;19508;42.578;23.416;2022-12-26T04:07:03;81.03;;;28.05;;
33150;SDS011;19508;42.578;23.416;2022-12-26T04:09:55;77.25;;;26.30;;
33150;SDS011;19508;42.578;23.416;2022-12-26T04:12:46;24.95;;;8.95;;
33150;SDS011;19508;42.578;23.416;2022-12-26T04:15:56;14.23;;;6.07;;
33150;SDS011;19508;42.578;23.416;2022-12-26T04:18:45;24.23;;;9.38;;
33150;SDS011;19508;42.578;23.416;2022-12-26T04:21:50;74.47;;;24.52;;
33150;SDS011;19508;42.578;23.416;2022-12-26T04:24:41;115.45;;;34.55;;
33150;SDS011;19508;42.578;23.416;2022-12-26T04:27:32;158.73;;;50.25;;
33150;SDS011;19508;42.578;23.416;2022-12-26T04:30:16;50.55;;;16.67;;
33150;SDS011;19508;42.578;23.416;2022-12-26T04:33:04;65.90;;;21.95;;
33150;SDS011;19508;42.578;23.416;2022-12-26T04:35:54;27.63;;;9.65;;
33150;SDS011;19508;42.578;23.416;2022-12-26T04:38:47;14.95;;;4.47;;
33150;SDS011;19508;42.578;23.416;2022-12-26T04:41:35;20.35;;;7.85;;
33150;SDS011;19508;42.578;23.416;2022-12-26T04:44:21;70.70;;;27.05;;
33150;SDS011;19508;42.578;23.416;2022-12-26T04:46:48;19.58;;;9.23;;
33150;SDS011;19508;42.578;23.416;2022-12-26T04:49:15;18.20;;;6.72;;
33150;SDS011;19508;42.578;23.416;2022-12-26T04:52:01;69.57;;;31.02;;
33150;SDS011;19508;42.578;23.416;2022-12-26T04:54:31;42.57;;;18.30;;
33150;SDS011;19508;42.578;23.416;2022-12-26T04:56:57;34.38;;;15.85;;
33150;SDS011;19508;42.578;23.416;2022-12-26T04:59:22;37.42;;;16.30;;
33150;SDS011;19508;42.578;23.416;2022-12-26T05:01:48;60.42;;;24.33;;
33150;SDS011;19508;42.578;23.416;2022-12-26T05:04:32;63.15;;;29.88;;
33150;SDS011;19508;42.578;23.416;2022-12-26T05:10:06;55.97;;;24.45;;
33150;SDS011;19508;42.578;23.416;2022-12-26T05:12:34;72.80;;;29.48;;
33150;SDS011;19508;42.578;23.416;2022-12-26T05:15:00;98.10;;;36.80;;
33150;SDS011;19508;42.578;23.416;2022-12-26T05:17:25;66.43;;;26.48;;
33150;SDS011;19508;42.578;23.416;2022-12-26T05:20:10;83.40;;;31.95;;
33150;SDS011;19508;42.578;23.416;2022-12-26T05:22:55;40.05;;;16.92;;
33150;SDS011;19508;42.578;23.416;2022-12-26T05:25:43;45.80;;;17.55;;
33150;SDS011;19508;42.578;23.416;2022-12-26T05:28:28;61.42;;;26.70;;
33150;SDS011;19508;42.578;23.416;2022-12-26T05:31:09;47.25;;;19.95;;
33150;SDS011;19508;42.578;23.416;2022-12-26T05:33:36;52.20;;;21.25;;
33150;SDS011;19508;42.578;23.416;2022-12-26T05:36:21;49.38;;;19.80;;
33150;SDS011;19508;42.578;23.416;2022-12-26T05:38:49;31.83;;;12.50;;
33150;SDS011;19508;42.578;23.416;2022-12-26T05:41:15;29.63;;;11.75;;
33150;SDS011;19508;42.578;23.416;2022-12-26T05:43:41;31.95;;;14.38;;
33150;SDS011;19508;42.578;23.416;2022-12-26T05:46:06;37.13;;;17.25;;
33150;SDS011;19508;42.578;23.416;2022-12-26T05:48:32;56.40;;;26.90;;
33150;SDS011;19508;42.578;23.416;2022-12-26T05:51:01;36.40;;;18.30;;
33150;SDS011;19508;42.578;23.416;2022-12-26T05:53:28;29.58;;;13.52;;
33150;SDS011;19508;42.578;23.416;2022-12-26T05:55:54;38.08;;;18.83;;
33150;SDS011;19508;42.578;23.416;2022-12-26T05:58:20;25.35;;;12.63;;
33150;SDS011;19508;42.578;23.416;2022-12-26T06:00:46;11.43;;;6.55;;
33150;SDS011;19508;42.578;23.416;2022-12-26T06:03:11;14.45;;;8.25;;
33150;SDS011;19508;42.578;23.416;2022-12-26T06:05:37;28.45;;;13.55;;
33150;SDS011;19508;42.578;23.416;2022-12-26T06:08:02;24.55;;;11.48;;
33150;SDS011;19508;42.578;23.416;2022-12-26T06:10:28;37.03;;;13.48;;
33150;SDS011;19508;42.578;23.416;2022-12-26T06:12:54;37.95;;;13.55;;
33150;SDS011;19508;42.578;23.416;2022-12-26T06:15:20;77.38;;;21.40;;
33150;SDS011;19508;42.578;23.416;2022-12-26T06:17:46;55.85;;;20.58;;
33150;SDS011;19508;42.578;23.416;2022-12-26T06:20:11;71.00;;;22.52;;
33150;SDS011;19508;42.578;23.416;2022-12-26T06:22:36;40.58;;;17.42;;
33150;SDS011;19508;42.578;23.416;2022-12-26T06:25:02;40.35;;;16.35;;
33150;SDS011;19508;42.578;23.416;2022-12-26T06:27:28;36.08;;;15.13;;
33150;SDS011;19508;42.578;23.416;2022-12-26T06:29:53;36.20;;;16.98;;
33150;SDS011;19508;42.578;23.416;2022-12-26T06:32:18;25.33;;;12.30;;
33150;SDS011;19508;42.578;23.416;2022-12-26T06:34:44;31.88;;;16.92;;
33150;SDS011;19508;42.578;23.416;2022-12-26T06:37:09;40.10;;;19.75;;
33150;SDS011;19508;42.578;23.416;2022-12-26T06:39:34;32.92;;;15.75;;
33150;SDS011;19508;42.578;23.416;2022-12-26T06:42:00;53.97;;;22.27;;
33150;SDS011;19508;42.578;23.416;2022-12-26T06:44:25;47.83;;;19.02;;
33150;SDS011;19508;42.578;23.416;2022-12-26T06:46:51;33.35;;;14.07;;
33150;SDS011;19508;42.578;23.416;2022-12-26T06:49:16;31.80;;;14.85;;
33150;SDS011;19508;42.578;23.416;2022-12-26T06:51:41;17.58;;;9.52;;
33150;SDS011;19508;42.578;23.416;2022-12-26T06:54:09;19.60;;;10.23;;
33150;SDS011;19508;42.578;23.416;2022-12-26T06:56:34;23.00;;;11.90;;
33150;SDS011;19508;42.578;23.416;2022-12-26T06:59:01;10.55;;;6.25;;
33150;SDS011;19508;42.578;23.416;2022-12-26T07:01:28;12.63;;;5.28;;
33150;SDS011;19508;42.578;23.416;2022-12-26T07:03:55;8.35;;;4.15;;
33150;SDS011;19508;42.578;23.416;2022-12-26T07:06:26;7.93;;;3.72;;
33150;SDS011;19508;42.578;23.416;2022-12-26T07:11:22;7.40;;;4.25;;
33150;SDS011;19508;42.578;23.416;2022-12-26T07:13:49;7.43;;;3.92;;
33150;SDS011;19508;42.578;23.416;2022-12-26T07:16:15;7.05;;;4.70;;
33150;SDS011;19508;42.578;23.416;2022-12-26T07:18:40;8.60;;;4.00;;
33150;SDS011;19508;42.578;23.416;2022-12-26T07:21:06;12.27;;;5.53;;
33150;SDS011;19508;42.578;23.416;2022-12-26T07:23:33;7.80;;;4.82;;
33150;SDS011;19508;42.578;23.416;2022-12-26T07:25:59;8.68;;;4.15;;
33150;SDS011;19508;42.578;23.416;2022-12-26T07:28:24;8.43;;;4.13;;
33150;SDS011;19508;42.578;23.416;2022-12-26T07:30:50;7.85;;;3.90;;
33150;SDS011;19508;42.578;23.416;2022-12-26T07:33:16;7.15;;;3.20;;
33150;SDS011;19508;42.578;23.416;2022-12-26T07:35:42;5.70;;;3.08;;
33150;SDS011;19508;42.578;23.416;2022-12-26T07:38:07;7.05;;;3.55;;
33150;SDS011;19508;42.578;23.416;2022-12-26T07:40:33;5.95;;;3.72;;
33150;SDS011;19508;42.578;23.416;2022-12-26T07:42:59;5.90;;;3.17;;
33150;SDS011;19508;42.578;23.416;2022-12-26T07:45:24;4.18;;;2.78;;
33150;SDS011;19508;42.578;23.416;2022-12-26T07:47:53;4.85;;;2.72;;
33150;SDS011;19508;42.578;23.416;2022-12-26T07:50:23;4.70;;;2.38;;
33150;SDS011;19508;42.578;23.416;2022-12-26T07:52:49;5.63;;;2.78;;
33150;SDS011;19508;42.578;23.416;2022-12-26T07:55:15;5.85;;;3.25;;
33150;SDS011;19508;42.578;23.416;2022-12-26T07:57:40;4.47;;;2.60;;
33150;SDS011;19508;42.578;23.416;2022-12-26T08:00:06;7.13;;;3.20;;
33150;SDS011;19508;42.578;23.416;2022-12-26T08:02:32;5.18;;;3.15;;
33150;SDS011;19508;42.578;23.416;2022-12-26T08:04:58;5.20;;;2.75;;
33150;SDS011;19508;42.578;23.416;2022-12-26T08:07:23;8.93;;;5.20;;
33150;SDS011;19508;42.578;23.416;2022-12-26T08:09:49;10.30;;;5.43;;
33150;SDS011;19508;42.578;23.416;2022-12-26T08:12:14;19.30;;;9.38;;
33150;SDS011;19508;42.578;23.416;2022-12-26T08:14:40;8.57;;;3.47;;
33150;SDS011;19508;42.578;23.416;2022-12-26T08:17:05;7.45;;;2.78;;
33150;SDS011;19508;42.578;23.416;2022-12-26T08:19:31;3.88;;;2.15;;
33150;SDS011;19508;42.578;23.416;2022-12-26T08:21:57;4.88;;;2.40;;
33150;SDS011;19508;42.578;23.416;2022-12-26T08:24:22;10.98;;;4.10;;
33150;SDS011;19508;42.578;23.416;2022-12-26T08:26:48;10.25;;;4.25;;
33150;SDS011;19508;42.578;23.416;2022-12-26T08:29:13;7.65;;;3.35;;
33150;SDS011;19508;42.578;23.416;2022-12-26T08:31:38;5.75;;;2.42;;
33150;SDS011;19508;42.578;23.416;2022-12-26T08:34:04;4.13;;;2.67;;
33150;SDS011;19508;42.578;23.416;2022-12-26T08:36:29;5.30;;;2.72;;
33150;SDS011;19508;42.578;23.416;2022-12-26T08:38:56;4.95;;;2.80;;
33150;SDS011;19508;42.578;23.416;2022-12-26T08:41:22;4.55;;;2.50;;
33150;SDS011;19508;42.578;23.416;2022-12-26T08:43:51;5.90;;;3.60;;
33150;SDS011;19508;42.578;23.416;2022-12-26T08:46:18;16.10;;;6.90;;
33150;SDS011;19508;42.578;23.416;2022-12-26T08:48:44;24.48;;;10.30;;
33150;SDS011;19508;42.578;23.416;2022-12-26T08:51:18;18.17;;;8.45;;
33150;SDS011;19508;42.578;23.416;2022-12-26T08:53:45;18.55;;;7.90;;
33150;SDS011;19508;42.578;23.416;2022-12-26T08:56:14;21.20;;;9.77;;
33150;SDS011;19508;42.578;23.416;2022-12-26T08:58:42;19.13;;;8.23;;
33150;SDS011;19508;42.578;23.416;2022-12-26T09:01:12;22.77;;;9.45;;
33150;SDS011;19508;42.578;23.416;2022-12-26T09:03:39;13.60;;;7.05;;
33150;SDS011;19508;42.578;23.416;2022-12-26T09:06:06;20.92;;;9.48;;
33150;SDS011;19508;42.578;23.416;2022-12-26T09:08:32;21.95;;;10.50;;
33150;SDS011;19508;42.578;23.416;2022-12-26T09:11:06;22.23;;;10.27;;
33150;SDS011;19508;42.578;23.416;2022-12-26T09:13:39;24.00;;;10.30;;
33150;SDS011;19508;42.578;23.416;2022-12-26T09:16:07;23.25;;;10.80;;
33150;SDS011;19508;42.578;23.416;2022-12-26T09:18:34;26.58;;;11.80;;
33150;SDS011;19508;42.578;23.416;2022-12-26T09:21:00;25.45;;;11.20;;
33150;SDS011;19508;42.578;23.416;2022-12-26T09:23:27;19.63;;;10.05;;
33150;SDS011;19508;42.578;23.416;2022-12-26T09:25:53;15.23;;;8.45;;
33150;SDS011;19508;42.578;23.416;2022-12-26T09:28:19;21.42;;;10.07;;
33150;SDS011;19508;42.578;23.416;2022-12-26T09:30:44;22.15;;;10.18;;
33150;SDS011;19508;42.578;23.416;2022-12-26T09:33:10;27.27;;;10.73;;
33150;SDS011;19508;42.578;23.416;2022-12-26T09:35:38;27.27;;;11.40;;
33150;SDS011;19508;42.578;23.416;2022-12-26T09:38:04;25.55;;;10.77;;
33150;SDS011;19508;42.578;23.416;2022-12-26T09:40:32;25.05;;;10.98;;
33150;SDS011;19508;42.578;23.416;2022-12-26T09:45:50;24.30;;;11.15;;
33150;SDS011;19508;42.578;23.416;2022-12-26T09:48:24;36.63;;;16.67;;
33150;SDS011;19508;42.578;23.416;2022-12-26T09:50:55;32.75;;;14.35;;
33150;SDS011;19508;42.578;23.416;2022-12-26T09:53:24;35.08;;;15.30;;
33150;SDS011;19508;42.578;23.416;2022-12-26T09:58:30;31.00;;;14.80;;
33150;SDS011;19508;42.578;23.416;2022-12-26T10:01:09;36.60;;;16.50;;
33150;SDS011;19508;42.578;23.416;2022-12-26T10:03:40;31.95;;;16.90;;
33150;SDS011;19508;42.578;23.416;2022-12-26T10:06:18;43.92;;;19.27;;
33150;SDS011;19508;42.578;23.416;2022-12-26T10:19:26;30.60;;;15.65;;
33150;SDS011;19508;42.578;23.416;2022-12-26T10:24:58;28.95;;;12.63;;
33150;SDS011;19508;42.578;23.416;2022-12-26T10:27:25;26.40;;;13.02;;
33150;SDS011;19508;42.578;23.416;2022-12-26T10:29:57;25.33;;;13.35;;
33150;SDS011;19508;42.578;23.416;2022-12-26T10:32:38;27.40;;;13.50;;
33150;SDS011;19508;42.578;23.416;2022-12-26T10:37:48;28.52;;;10.10;;
33150;SDS011;19508;42.578;23.416;2022-12-26T10:40:20;27.00;;;12.25;;
33150;SDS011;19508;42.578;23.416;2022-12-26T10:42:53;23.45;;;10.77;;
33150;SDS011;19508;42.578;23.416;2022-12-26T10:47:56;21.95;;;9.85;;
33150;SDS011;19508;42.578;23.416;2022-12-26T10:50:23;24.98;;;10.90;;
33150;SDS011;19508;42.578;23.416;2022-12-26T10:52:51;15.55;;;7.93;;
33150;SDS011;19508;42.578;23.416;2022-12-26T10:55:17;18.80;;;9.52;;
33150;SDS011;19508;42.578;23.416;2022-12-26T10:57:51;18.42;;;7.00;;
33150;SDS011;19508;42.578;23.416;2022-12-26T11:00:25;11.45;;;4.65;;
33150;SDS011;19508;42.578;23.416;2022-12-26T11:05:32;12.82;;;5.10;;
33150;SDS011;19508;42.578;23.416;2022-12-26T11:08:14;13.98;;;6.25;;
33150;SDS011;19508;42.578;23.416;2022-12-26T11:10:40;11.07;;;4.50;;
33150;SDS011;19508;42.578;23.416;2022-12-26T11:13:17;9.93;;;4.20;;
33150;SDS011;19508;42.578;23.416;2022-12-26T11:18:18;12.10;;;4.80;;
33150;SDS011;19508;42.578;23.416;2022-12-26T11:20:51;11.13;;;4.63;;
33150;SDS011;19508;42.578;23.416;2022-12-26T11:23:27;8.40;;;3.35;;
33150;SDS011;19508;42.578;23.416;2022-12-26T11:25:58;8.45;;;4.10;;
33150;SDS011;19508;42.578;23.416;2022-12-26T11:28:34;12.40;;;3.53;;
33150;SDS011;19508;42.578;23.416;2022-12-26T11:31:05;11.95;;;4.47;;
33150;SDS011;19508;42.578;23.416;2022-12-26T11:33:32;13.88;;;4.25;;
33150;SDS011;19508;42.578;23.416;2022-12-26T11:36:10;9.63;;;4.32;;
33150;SDS011;19508;42.578;23.416;2022-12-26T11:38:47;16.23;;;4.00;;
33150;SDS011;19508;42.578;23.416;2022-12-26T11:41:17;10.57;;;4.40;;
33150;SDS011;19508;42.578;23.416;2022-12-26T11:44:03;11.00;;;4.22;;
33150;SDS011;19508;42.578;23.416;2022-12-26T11:46:43;7.03;;;3.53;;
33150;SDS011;19508;42.578;23.416;2022-12-26T11:49:20;8.73;;;3.83;;
33150;SDS011;19508;42.578;23.416;2022-12-26T11:51:50;8.13;;;4.30;;
33150;SDS011;19508;42.578;23.416;2022-12-26T12:00:12;6.60;;;3.83;;
33150;SDS011;19508;42.578;23.416;2022-12-26T12:02:40;12.82;;;4.95;;
33150;SDS011;19508;42.578;23.416;2022-12-26T12:05:22;8.98;;;4.57;;
33150;SDS011;19508;42.578;23.416;2022-12-26T12:08:25;15.88;;;4.88;;
33150;SDS011;19508;42.578;23.416;2022-12-26T12:11:10;13.15;;;5.05;;
33150;SDS011;19508;42.578;23.416;2022-12-26T12:13:41;9.70;;;4.47;;
33150;SDS011;19508;42.578;23.416;2022-12-26T12:21:44;10.68;;;4.53;;
33150;SDS011;19508;42.578;23.416;2022-12-26T12:24:22;15.40;;;4.53;;
33150;SDS011;19508;42.578;23.416;2022-12-26T12:26:58;17.48;;;3.70;;
33150;SDS011;19508;42.578;23.416;2022-12-26T12:29:42;6.82;;;3.35;;
33150;SDS011;19508;42.578;23.416;2022-12-26T12:34:55;8.95;;;3.30;;
33150;SDS011;19508;42.578;23.416;2022-12-26T12:43:33;13.65;;;4.63;;
33150;SDS011;19508;42.578;23.416;2022-12-26T13:02:05;10.75;;;4.55;;
33150;SDS011;19508;42.578;23.416;2022-12-26T13:04:47;13.93;;;4.82;;
33150;SDS011;19508;42.578;23.416;2022-12-26T13:07:20;11.25;;;4.20;;
33150;SDS011;19508;42.578;23.416;2022-12-26T13:09:52;8.88;;;3.92;;
33150;SDS011;19508;42.578;23.416;2022-12-26T13:12:24;12.00;;;4.13;;
33150;SDS011;19508;42.578;23.416;2022-12-26T13:15:13;8.75;;;4.00;;
33150;SDS011;19508;42.578;23.416;2022-12-26T13:17:52;10.23;;;4.63;;
33150;SDS011;19508;42.578;23.416;2022-12-26T13:20:29;13.30;;;5.13;;
33150;SDS011;19508;42.578;23.416;2022-12-26T13:23:03;24.10;;;13.15;;
33150;SDS011;19508;42.578;23.416;2022-12-26T13:26:06;20.35;;;11.43;;
33150;SDS011;19508;42.578;23.416;2022-12-26T13:28:42;25.08;;;13.10;;
33150;SDS011;19508;42.578;23.416;2022-12-26T13:31:47;34.20;;;14.05;;
33150;SDS011;19508;42.578;23.416;2022-12-26T13:34:16;40.45;;;19.98;;
33150;SDS011;19508;42.578;23.416;2022-12-26T13:36:44;41.50;;;16.70;;
33150;SDS011;19508;42.578;23.416;2022-12-26T13:39:45;45.97;;;21.60;;
33150;SDS011;19508;42.578;23.416;2022-12-26T13:50:48;69.65;;;31.42;;
33150;SDS011;19508;42.578;23.416;2022-12-26T13:53:26;56.13;;;22.77;;
33150;SDS011;19508;42.578;23.416;2022-12-26T13:55:55;42.60;;;16.67;;
33150;SDS011;19508;42.578;23.416;2022-12-26T14:01:11;88.60;;;34.47;;
33150;SDS011;19508;42.578;23.416;2022-12-26T14:03:51;100.95;;;36.08;;
33150;SDS011;19508;42.578;23.416;2022-12-26T14:06:28;85.10;;;30.92;;
33150;SDS011;19508;42.578;23.416;2022-12-26T14:09:27;47.72;;;19.80;;
33150;SDS011;19508;42.578;23.416;2022-12-26T14:11:59;49.55;;;21.90;;
33150;SDS011;19508;42.578;23.416;2022-12-26T14:17:25;49.70;;;24.83;;
33150;SDS011;19508;42.578;23.416;2022-12-26T14:36:00;61.65;;;27.85;;
33150;SDS011;19508;42.578;23.416;2022-12-26T14:41:16;80.70;;;37.30;;
33150;SDS011;19508;42.578;23.416;2022-12-26T14:54:47;81.63;;;32.55;;
33150;SDS011;19508;42.578;23.416;2022-12-26T15:05:24;53.15;;;25.88;;
33150;SDS011;19508;42.578;23.416;2022-12-26T15:38:15;66.70;;;26.92;;
33150;SDS011;19508;42.578;23.416;2022-12-26T15:41:10;62.28;;;25.73;;
33150;SDS011;19508;42.578;23.416;2022-12-26T15:46:34;37.33;;;18.52;;
33150;SDS011;19508;42.578;23.416;2022-12-26T15:57:27;59.90;;;27.70;;
33150;SDS011;19508;42.578;23.416;2022-12-26T16:00:22;49.40;;;20.58;;
33150;SDS011;19508;42.578;23.416;2022-12-26T16:12:13;40.00;;;20.38;;
33150;SDS011;19508;42.578;23.416;2022-12-26T16:14:44;122.00;;;51.40;;
33150;SDS011;19508;42.578;23.416;2022-12-26T16:19:39;115.82;;;46.90;;
33150;SDS011;19508;42.578;23.416;2022-12-26T16:22:07;120.88;;;45.55;;
33150;SDS011;19508;42.578;23.416;2022-12-26T16:24:57;124.65;;;44.35;;
33150;SDS011;19508;42.578;23.416;2022-12-26T16:27:23;89.15;;;36.03;;
33150;SDS011;19508;42.578;23.416;2022-12-26T16:29:50;69.18;;;28.27;;
33150;SDS011;19508;42.578;23.416;2022-12-26T16:32:21;43.58;;;16.30;;
33150;SDS011;19508;42.578;23.416;2022-12-26T16:34:55;51.63;;;22.98;;
33150;SDS011;19508;42.578;23.416;2022-12-26T16:37:22;51.92;;;24.48;;
33150;SDS011;19508;42.578;23.416;2022-12-26T16:40:06;35.53;;;18.25;;
33150;SDS011;19508;42.578;23.416;2022-12-26T16:45:16;31.27;;;10.30;;
33150;SDS011;19508;42.578;23.416;2022-12-26T16:47:43;37.65;;;16.08;;
33150;SDS011;19508;42.578;23.416;2022-12-26T16:50:18;29.33;;;12.93;;
33150;SDS011;19508;42.578;23.416;2022-12-26T16:52:45;55.10;;;20.45;;
33150;SDS011;19508;42.578;23.416;2022-12-26T16:57:55;51.40;;;20.10;;
33150;SDS011;19508;42.578;23.416;2022-12-26T17:00:23;33.33;;;14.25;;
33150;SDS011;19508;42.578;23.416;2022-12-26T17:02:51;21.80;;;10.50;;
33150;SDS011;19508;42.578;23.416;2022-12-26T17:05:21;31.25;;;10.35;;
33150;SDS011;19508;42.578;23.416;2022-12-26T17:07:50;22.10;;;10.90;;
33150;SDS011;19508;42.578;23.416;2022-12-26T17:10:28;29.23;;;14.57;;
33150;SDS011;19508;42.578;23.416;2022-12-26T17:12:58;50.70;;;22.40;;
33150;SDS011;19508;42.578;23.416;2022-12-26T17:15:32;54.50;;;24.48;;
33150;SDS011;19508;42.578;23.416;2022-12-26T17:23:31;66.28;;;23.77;;
33150;SDS011;19508;42.578;23.416;2022-12-26T17:26:18;27.83;;;11.00;;
33150;SDS011;19508;42.578;23.416;2022-12-26T17:28:45;47.72;;;20.95;;
33150;SDS011;19508;42.578;23.416;2022-12-26T17:31:12;51.22;;;22.13;;
33150;SDS011;19508;42.578;23.416;2022-12-26T17:33:42;46.57;;;19.20;;
33150;SDS011;19508;42.578;23.416;2022-12-26T17:36:11;39.03;;;18.25;;
33150;SDS011;19508;42.578;23.416;2022-12-26T17:38:38;57.33;;;20.60;;
33150;SDS011;19508;42.578;23.416;2022-12-26T17:41:05;62.42;;;25.15;;
33150;SDS011;19508;42.578;23.416;2022-12-26T17:43:33;90.63;;;32.50;;
33150;SDS011;19508;42.578;23.416;2022-12-26T17:46:03;129.43;;;45.65;;
33150;SDS011;19508;42.578;23.416;2022-12-26T17:48:30;103.68;;;42.08;;
33150;SDS011;19508;42.578;23.416;2022-12-26T17:50:59;121.60;;;47.17;;
33150;SDS011;19508;42.578;23.416;2022-12-26T17:53:27;86.82;;;34.15;;
33150;SDS011;19508;42.578;23.416;2022-12-26T17:55:57;91.57;;;37.10;;
33150;SDS011;19508;42.578;23.416;2022-12-26T17:58:24;85.28;;;33.30;;
33150;SDS011;19508;42.578;23.416;2022-12-26T18:00:50;96.63;;;35.72;;
33150;SDS011;19508;42.578;23.416;2022-12-26T18:03:16;67.93;;;28.55;;
33150;SDS011;19508;42.578;23.416;2022-12-26T18:05:41;70.95;;;29.95;;
33150;SDS011;19508;42.578;23.416;2022-12-26T18:08:09;47.78;;;18.98;;
33150;SDS011;19508;42.578;23.416;2022-12-26T18:10:55;40.72;;;15.27;;
33150;SDS011;19508;42.578;23.416;2022-12-26T18:13:22;37.05;;;17.73;;
33150;SDS011;19508;42.578;23.416;2022-12-26T18:15:47;36.03;;;17.35;;
33150;SDS011;19508;42.578;23.416;2022-12-26T18:18:24;28.92;;;14.60;;
33150;SDS011;19508;42.578;23.416;2022-12-26T18:21:08;35.40;;;17.23;;
33150;SDS011;19508;42.578;23.416;2022-12-26T18:23:36;45.40;;;16.25;;
33150;SDS011;19508;42.578;23.416;2022-12-26T18:26:03;54.40;;;21.27;;
33150;SDS011;19508;42.578;23.416;2022-12-26T18:28:32;63.17;;;25.30;;